createdAt,value
2017-08-30T00:00:43.853Z,1008.03
2017-08-30T00:01:56.541Z,1008.04
2017-08-30T00:03:08.795Z,1008.05
2017-08-30T00:04:20.721Z,1008.05
2017-08-30T00:05:33.012Z,1008.05
2017-08-30T00:06:45.656Z,1008.06
2017-08-30T00:07:58.188Z,1008.07
2017-08-30T00:09:10.500Z,1008
2017-08-30T00:10:22.743Z,1008
2017-08-30T00:11:35.375Z,1008.03
2017-08-30T00:12:47.942Z,1008.02
2017-08-30T00:14:00.522Z,1007.99
2017-08-30T00:15:13.058Z,1007.96
2017-08-30T00:16:25.354Z,1007.99
2017-08-30T00:17:37.878Z,1007.96
2017-08-30T00:18:50.519Z,1007.93
2017-08-30T00:20:03.145Z,1007.97
2017-08-30T00:21:15.437Z,1007.92
2017-08-30T00:22:28.289Z,1007.94
2017-08-30T00:23:40.906Z,1007.98
2017-08-30T00:24:53.508Z,1007.97
2017-08-30T00:26:06.072Z,1007.98
2017-08-30T00:27:18.384Z,1007.95
2017-08-30T00:28:30.943Z,1007.94
2017-08-30T00:29:43.555Z,1007.91
2017-08-30T00:30:56.198Z,1007.89
2017-08-30T00:32:08.188Z,1007.85
2017-08-30T00:33:20.468Z,1007.86
2017-08-30T00:34:32.767Z,1007.89
2017-08-30T00:35:45.350Z,1007.89
2017-08-30T00:36:57.654Z,1007.85
2017-08-30T00:38:09.886Z,1007.86
2017-08-30T00:39:22.440Z,1007.89
2017-08-30T00:40:35.095Z,1007.9
2017-08-30T00:41:47.663Z,1007.88
2017-08-30T00:43:00.254Z,1007.88
2017-08-30T00:44:12.827Z,1007.91
2017-08-30T00:45:25.123Z,1007.84
2017-08-30T00:46:37.388Z,1007.87
2017-08-30T00:47:49.700Z,1007.89
2017-08-30T00:49:01.917Z,1007.85
2017-08-30T00:50:14.474Z,1007.9
2017-08-30T00:51:26.771Z,1007.9
2017-08-30T00:52:39.057Z,1007.86
2017-08-30T00:53:51.712Z,1007.85
2017-08-30T00:55:04.571Z,1007.84
2017-08-30T00:56:16.808Z,1007.84
2017-08-30T00:57:29.398Z,1007.85
2017-08-30T00:58:41.945Z,1007.82
2017-08-30T00:59:54.512Z,1007.84
2017-08-30T01:01:06.796Z,1007.84
2017-08-30T01:02:19.391Z,1007.82
2017-08-30T01:03:31.702Z,1007.83
2017-08-30T01:04:44.312Z,1007.76
2017-08-30T01:05:56.941Z,1007.79
2017-08-30T01:07:09.577Z,1007.81
2017-08-30T01:08:21.859Z,1007.77
2017-08-30T01:09:34.405Z,1007.77
2017-08-30T01:10:46.949Z,1007.75
2017-08-30T01:11:59.524Z,1007.73
2017-08-30T01:13:11.772Z,1007.7
2017-08-30T01:14:24.380Z,1007.7
2017-08-30T01:15:36.944Z,1007.68
2017-08-30T01:16:49.628Z,1007.72
2017-08-30T01:18:02.260Z,1007.63
2017-08-30T01:19:14.544Z,1007.69
2017-08-30T01:20:27.151Z,1007.64
2017-08-30T01:21:39.422Z,1007.68
2017-08-30T01:22:52.073Z,1007.72
2017-08-30T01:24:04.679Z,1007.74
2017-08-30T01:25:16.972Z,1007.75
2017-08-30T01:26:29.575Z,1007.77
2017-08-30T01:27:42.175Z,1007.75
2017-08-30T01:28:54.452Z,1007.74
2017-08-30T01:30:07.058Z,1007.72
2017-08-30T01:31:19.551Z,1007.72
2017-08-30T01:32:32.196Z,1007.75
2017-08-30T01:33:44.430Z,1007.72
2017-08-30T01:34:57.080Z,1007.7
2017-08-30T01:36:09.612Z,1007.65
2017-08-30T01:37:22.214Z,1007.68
2017-08-30T01:38:34.901Z,1007.65
2017-08-30T01:39:47.488Z,1007.55
2017-08-30T01:41:00.098Z,1007.59
2017-08-30T01:42:12.060Z,1007.54
2017-08-30T01:43:24.635Z,1007.55
2017-08-30T01:44:36.852Z,1007.57
2017-08-30T01:45:49.149Z,1007.6
2017-08-30T01:47:01.711Z,1007.58
2017-08-30T01:48:14.265Z,1007.55
2017-08-30T01:49:26.922Z,1007.56
2017-08-30T01:50:39.520Z,1007.52
2017-08-30T01:51:52.145Z,1007.51
2017-08-30T01:53:04.728Z,1007.46
2017-08-30T01:54:17.010Z,1007.46
2017-08-30T01:55:29.594Z,1007.5
2017-08-30T01:56:42.176Z,1007.52
2017-08-30T01:57:54.722Z,1007.51
2017-08-30T01:59:06.980Z,1007.49
2017-08-30T02:00:19.261Z,1007.5
2017-08-30T02:01:31.929Z,1007.48
2017-08-30T02:02:44.239Z,1007.45
2017-08-30T02:03:56.492Z,1007.46
2017-08-30T02:05:09.110Z,1007.43
2017-08-30T02:06:21.413Z,1007.45
2017-08-30T02:07:33.988Z,1007.42
2017-08-30T02:08:46.540Z,1007.45
2017-08-30T02:09:59.122Z,1007.45
2017-08-30T02:11:11.383Z,1007.45
2017-08-30T02:12:23.639Z,1007.47
2017-08-30T02:13:35.923Z,1007.49
2017-08-30T02:14:47.886Z,1007.46
2017-08-30T02:16:00.157Z,1007.45
2017-08-30T02:17:12.791Z,1007.46
2017-08-30T02:18:25.331Z,1007.44
2017-08-30T02:19:37.928Z,1007.44
2017-08-30T02:20:50.472Z,1007.42
2017-08-30T02:22:02.461Z,1007.38
2017-08-30T02:23:14.419Z,1007.38
2017-08-30T02:24:26.685Z,1007.36
2017-08-30T02:25:39.291Z,1007.37
2017-08-30T02:26:51.887Z,1007.33
2017-08-30T02:28:03.877Z,1007.4
2017-08-30T02:29:16.427Z,1007.38
2017-08-30T02:30:28.693Z,1007.34
2017-08-30T02:31:41.262Z,1007.37
2017-08-30T02:32:53.871Z,1007.37
2017-08-30T02:34:06.182Z,1007.36
2017-08-30T02:35:18.820Z,1007.34
2017-08-30T02:36:31.366Z,1007.35
2017-08-30T02:37:43.886Z,1007.34
2017-08-30T02:38:56.461Z,1007.31
2017-08-30T02:40:09.089Z,1007.32
2017-08-30T02:41:21.649Z,1007.29
2017-08-30T02:42:34.200Z,1007.29
2017-08-30T02:43:46.731Z,1007.26
2017-08-30T02:44:59.310Z,1007.27
2017-08-30T02:46:11.856Z,1007.24
2017-08-30T02:47:24.452Z,1007.23
2017-08-30T02:48:37.008Z,1007.2
2017-08-30T02:49:49.667Z,1007.21
2017-08-30T02:51:02.270Z,1007.2
2017-08-30T02:52:14.859Z,1007.23
2017-08-30T02:53:27.430Z,1007.23
2017-08-30T02:54:39.782Z,1007.19
2017-08-30T02:55:51.810Z,1007.16
2017-08-30T02:57:04.092Z,1007.17
2017-08-30T02:58:16.705Z,1007.15
2017-08-30T02:59:29.236Z,1007.13
2017-08-30T03:00:41.552Z,1007.12
2017-08-30T03:01:54.100Z,1007.11
2017-08-30T03:03:06.351Z,1007.08
2017-08-30T03:04:18.676Z,1007.15
2017-08-30T03:05:31.236Z,1007.19
2017-08-30T03:06:43.831Z,1007.17
2017-08-30T03:07:56.413Z,1007.2
2017-08-30T03:09:08.727Z,1007.17
2017-08-30T03:10:21.293Z,1007.13
2017-08-30T03:11:33.925Z,1007.14
2017-08-30T03:12:46.559Z,1007.14
2017-08-30T03:13:59.148Z,1007.12
2017-08-30T03:15:11.374Z,1007.14
2017-08-30T03:16:23.082Z,1007.09
2017-08-30T03:17:35.733Z,1007.16
2017-08-30T03:18:48.299Z,1007.19
2017-08-30T03:20:00.884Z,1007.21
2017-08-30T03:21:13.153Z,1007.27
2017-08-30T03:22:25.436Z,1007.29
2017-08-30T03:23:38.001Z,1007.33
2017-08-30T03:24:50.707Z,1007.29
2017-08-30T03:26:02.979Z,1007.31
2017-08-30T03:27:15.288Z,1007.28
2017-08-30T03:28:27.858Z,1007.28
2017-08-30T03:29:40.473Z,1007.28
2017-08-30T03:30:53.096Z,1007.27
2017-08-30T03:32:05.741Z,1007.22
2017-08-30T03:33:17.986Z,1007.3
2017-08-30T03:34:30.257Z,1007.27
2017-08-30T03:35:42.827Z,1007.29
2017-08-30T03:36:55.414Z,1007.25
2017-08-30T03:38:08.175Z,1007.25
2017-08-30T03:39:20.738Z,1007.29
2017-08-30T03:40:33.011Z,1007.31
2017-08-30T03:41:45.561Z,1007.31
2017-08-30T03:42:58.086Z,1007.31
2017-08-30T03:44:10.671Z,1007.29
2017-08-30T03:45:22.654Z,1007.29
2017-08-30T03:46:35.289Z,1007.3
2017-08-30T03:47:47.808Z,1007.32
2017-08-30T03:49:00.401Z,1007.3
2017-08-30T03:50:12.338Z,1007.29
2017-08-30T03:51:24.977Z,1007.29
2017-08-30T03:52:37.569Z,1007.26
2017-08-30T03:53:50.117Z,1007.25
2017-08-30T03:55:02.410Z,1007.24
2017-08-30T03:56:14.738Z,1007.22
2017-08-30T03:57:27.372Z,1007.23
2017-08-30T03:58:39.930Z,1007.28
2017-08-30T03:59:52.570Z,1007.2
2017-08-30T04:01:04.878Z,1007.23
2017-08-30T04:02:16.774Z,1007.23
2017-08-30T04:03:29.333Z,1007.26
2017-08-30T04:04:41.976Z,1007.23
2017-08-30T04:05:54.554Z,1007.22
2017-08-30T04:07:07.142Z,1007.25
2017-08-30T04:08:19.721Z,1007.25
2017-08-30T04:09:32.329Z,1007.28
2017-08-30T04:10:44.912Z,1007.28
2017-08-30T04:11:57.563Z,1007.27
2017-08-30T04:13:09.895Z,1007.29
2017-08-30T04:14:22.118Z,1007.27
2017-08-30T04:15:34.689Z,1007.23
2017-08-30T04:16:47.154Z,1007.24
2017-08-30T04:17:59.391Z,1007.26
2017-08-30T04:19:11.697Z,1007.23
2017-08-30T04:20:23.972Z,1007.29
2017-08-30T04:21:36.539Z,1007.31
2017-08-30T04:22:49.106Z,1007.28
2017-08-30T04:24:01.677Z,1007.3
2017-08-30T04:25:14.249Z,1007.31
2017-08-30T04:26:26.843Z,1007.33
2017-08-30T04:27:39.692Z,1007.32
2017-08-30T04:28:52.325Z,1007.3
2017-08-30T04:30:04.604Z,1007.3
2017-08-30T04:31:17.187Z,1007.29
2017-08-30T04:32:29.751Z,1007.26
2017-08-30T04:33:42.344Z,1007.28
2017-08-30T04:34:54.927Z,1007.25
2017-08-30T04:36:07.547Z,1007.3
2017-08-30T04:37:19.829Z,1007.31
2017-08-30T04:38:32.455Z,1007.31
2017-08-30T04:39:45.082Z,1007.31
2017-08-30T04:40:57.341Z,1007.36
2017-08-30T04:42:09.604Z,1007.38
2017-08-30T04:43:22.201Z,1007.37
2017-08-30T04:44:34.777Z,1007.37
2017-08-30T04:45:47.381Z,1007.41
2017-08-30T04:46:59.701Z,1007.38
2017-08-30T04:48:11.964Z,1007.39
2017-08-30T04:49:24.287Z,1007.36
2017-08-30T04:50:36.830Z,1007.37
2017-08-30T04:51:49.388Z,1007.37
2017-08-30T04:53:02.064Z,1007.31
2017-08-30T04:54:14.342Z,1007.33
2017-08-30T04:55:26.587Z,1007.33
2017-08-30T04:56:39.159Z,1007.3
2017-08-30T04:57:51.794Z,1007.3
2017-08-30T04:59:04.375Z,1007.3
2017-08-30T05:00:17.000Z,1007.31
2017-08-30T05:01:29.543Z,1007.31
2017-08-30T05:02:42.175Z,1007.31
2017-08-30T05:03:54.759Z,1007.31
2017-08-30T05:05:07.339Z,1007.29
2017-08-30T05:06:18.692Z,1007.26
2017-08-30T05:07:31.294Z,1007.28
2017-08-30T05:08:43.568Z,1007.3
2017-08-30T05:09:56.093Z,1007.32
2017-08-30T05:11:08.718Z,1007.31
2017-08-30T05:12:21.284Z,1007.34
2017-08-30T05:13:33.896Z,1007.34
2017-08-30T05:14:46.479Z,1007.33
2017-08-30T05:15:59.121Z,1007.33
2017-08-30T05:17:11.729Z,1007.33
2017-08-30T05:18:24.269Z,1007.32
2017-08-30T05:19:36.852Z,1007.35
2017-08-30T05:20:49.435Z,1007.35
2017-08-30T05:22:01.385Z,1007.36
2017-08-30T05:23:13.361Z,1007.36
2017-08-30T05:24:25.609Z,1007.32
2017-08-30T05:25:37.930Z,1007.38
2017-08-30T05:26:50.828Z,1007.37
2017-08-30T05:28:03.427Z,1007.39
2017-08-30T05:29:15.981Z,1007.4
2017-08-30T05:30:28.263Z,1007.39
2017-08-30T05:31:40.575Z,1007.39
2017-08-30T05:32:53.127Z,1007.41
2017-08-30T05:34:05.731Z,1007.39
2017-08-30T05:35:18.045Z,1007.4
2017-08-30T05:36:30.277Z,1007.4
2017-08-30T05:37:43.105Z,1007.37
2017-08-30T05:38:55.361Z,1007.39
2017-08-30T05:40:07.583Z,1007.43
2017-08-30T05:41:19.526Z,1007.44
2017-08-30T05:42:31.784Z,1007.43
2017-08-30T05:43:44.433Z,1007.45
2017-08-30T05:44:57.010Z,1007.42
2017-08-30T05:46:09.591Z,1007.42
2017-08-30T05:47:21.909Z,1007.4
2017-08-30T05:48:34.515Z,1007.4
2017-08-30T05:49:47.073Z,1007.42
2017-08-30T05:50:59.738Z,1007.44
2017-08-30T05:52:12.295Z,1007.45
2017-08-30T05:53:24.624Z,1007.44
2017-08-30T05:54:36.868Z,1007.43
2017-08-30T05:55:49.427Z,1007.38
2017-08-30T05:57:02.017Z,1007.37
2017-08-30T05:58:14.286Z,1007.37
2017-08-30T05:59:26.900Z,1007.34
2017-08-30T06:00:39.155Z,1007.38
2017-08-30T06:01:51.824Z,1007.35
2017-08-30T06:03:04.387Z,1007.34
2017-08-30T06:04:16.633Z,1007.36
2017-08-30T06:05:28.879Z,1007.36
2017-08-30T06:06:41.507Z,1007.38
2017-08-30T06:07:53.766Z,1007.37
2017-08-30T06:09:06.027Z,1007.38
2017-08-30T06:10:18.018Z,1007.32
2017-08-30T06:11:30.621Z,1007.36
2017-08-30T06:12:43.227Z,1007.31
2017-08-30T06:13:55.818Z,1007.34
2017-08-30T06:15:07.779Z,1007.33
2017-08-30T06:16:20.439Z,1007.32
2017-08-30T06:17:32.744Z,1007.3
2017-08-30T06:18:45.318Z,1007.29
2017-08-30T06:19:57.259Z,1007.31
2017-08-30T06:21:09.796Z,1007.3
2017-08-30T06:22:22.361Z,1007.31
2017-08-30T06:23:34.357Z,1007.32
2017-08-30T06:24:46.324Z,1007.27
2017-08-30T06:25:58.867Z,1007.27
2017-08-30T06:27:11.456Z,1007.31
2017-08-30T06:28:24.078Z,1007.25
2017-08-30T06:29:36.374Z,1007.27
2017-08-30T06:30:48.945Z,1007.24
2017-08-30T06:32:01.514Z,1007.24
2017-08-30T06:33:13.785Z,1007.26
2017-08-30T06:34:26.082Z,1007.24
2017-08-30T06:35:38.658Z,1007.27
2017-08-30T06:36:50.903Z,1007.23
2017-08-30T06:38:02.846Z,1007.25
2017-08-30T06:39:15.488Z,1007.25
2017-08-30T06:40:27.735Z,1007.27
2017-08-30T06:41:39.656Z,1007.19
2017-08-30T06:42:52.544Z,1007.19
2017-08-30T06:44:05.183Z,1007.2
2017-08-30T06:45:17.723Z,1007.22
2017-08-30T06:46:30.290Z,1007.23
2017-08-30T06:47:42.208Z,1007.32
2017-08-30T06:48:54.465Z,1007.25
2017-08-30T06:50:06.436Z,1007.2
2017-08-30T06:51:18.734Z,1007.14
2017-08-30T06:52:31.356Z,1007.21
2017-08-30T06:53:43.944Z,1007.14
2017-08-30T06:54:56.159Z,1007.15
2017-08-30T06:56:08.771Z,1007.17
2017-08-30T06:57:21.050Z,1007.14
2017-08-30T06:58:33.644Z,1007.18
2017-08-30T06:59:45.946Z,1007.19
2017-08-30T07:00:58.239Z,1007.13
2017-08-30T07:02:10.835Z,1007.14
2017-08-30T07:03:23.407Z,1007.11
2017-08-30T07:04:36.000Z,1007.16
2017-08-30T07:05:48.251Z,1007.12
2017-08-30T07:07:00.532Z,1007.17
2017-08-30T07:08:12.466Z,1007.13
2017-08-30T07:09:25.103Z,1007.15
2017-08-30T07:10:37.725Z,1007.17
2017-08-30T07:11:49.976Z,1007.16
2017-08-30T07:13:02.284Z,1007.2
2017-08-30T07:14:14.894Z,1007.13
2017-08-30T07:15:27.221Z,1007.14
2017-08-30T07:16:39.814Z,1007.18
2017-08-30T07:17:52.142Z,1007.15
2017-08-30T07:19:04.773Z,1007.16
2017-08-30T07:20:17.084Z,1007.18
2017-08-30T07:21:29.652Z,1007.14
2017-08-30T07:22:41.949Z,1007.16
2017-08-30T07:23:54.557Z,1007.21
2017-08-30T07:25:06.847Z,1007.2
2017-08-30T07:26:19.145Z,1007.21
2017-08-30T07:27:31.151Z,1007.21
2017-08-30T07:28:43.437Z,1007.23
2017-08-30T07:29:55.732Z,1007.16
2017-08-30T07:31:07.713Z,1007.16
2017-08-30T07:32:20.006Z,1007.17
2017-08-30T07:33:32.604Z,1007.1
2017-08-30T07:34:44.948Z,1007.09
2017-08-30T07:35:57.634Z,1007.08
2017-08-30T07:37:10.194Z,1007.03
2017-08-30T07:38:22.757Z,1007.04
2017-08-30T07:39:35.053Z,1007.04
2017-08-30T07:40:47.723Z,1007.05
2017-08-30T07:42:00.054Z,1007.02
2017-08-30T07:43:12.333Z,1006.97
2017-08-30T07:44:24.628Z,1007.01
2017-08-30T07:45:36.882Z,1007.05
2017-08-30T07:46:49.210Z,1007
2017-08-30T07:48:01.817Z,1006.97
2017-08-30T07:49:13.779Z,1007.01
2017-08-30T07:50:25.793Z,1007.05
2017-08-30T07:51:38.412Z,1007.01
2017-08-30T07:52:51.005Z,1007.01
2017-08-30T07:54:03.555Z,1007.02
2017-08-30T07:55:15.847Z,1006.98
2017-08-30T07:56:28.489Z,1007.01
2017-08-30T07:57:41.073Z,1006.94
2017-08-30T07:58:53.388Z,1006.95
2017-08-30T08:00:06.014Z,1006.93
2017-08-30T08:01:18.619Z,1006.94
2017-08-30T08:02:31.217Z,1006.93
2017-08-30T08:03:43.908Z,1006.98
2017-08-30T08:04:56.504Z,1006.9
2017-08-30T08:06:09.112Z,1006.9
2017-08-30T08:07:21.750Z,1006.89
2017-08-30T08:08:34.298Z,1006.87
2017-08-30T08:09:46.893Z,1006.91
2017-08-30T08:10:59.469Z,1006.88
2017-08-30T08:12:11.802Z,1006.87
2017-08-30T08:13:24.092Z,1006.82
2017-08-30T08:14:36.332Z,1006.88
2017-08-30T08:15:48.995Z,1006.82
2017-08-30T08:17:01.015Z,1006.84
2017-08-30T08:18:12.666Z,1006.88
2017-08-30T08:19:24.955Z,1006.85
2017-08-30T08:20:37.486Z,1006.88
2017-08-30T08:21:49.801Z,1006.9
2017-08-30T08:23:02.404Z,1006.91
2017-08-30T08:24:14.734Z,1006.91
2017-08-30T08:25:26.787Z,1006.91
2017-08-30T08:26:39.444Z,1006.92
2017-08-30T08:27:52.027Z,1006.93
2017-08-30T08:29:04.585Z,1006.94
2017-08-30T08:30:16.887Z,1006.88
2017-08-30T08:31:29.233Z,1006.93
2017-08-30T08:32:41.835Z,1006.92
2017-08-30T08:33:54.467Z,1006.91
2017-08-30T08:35:07.077Z,1006.91
2017-08-30T08:36:19.673Z,1006.95
2017-08-30T08:37:32.238Z,1006.95
2017-08-30T08:38:44.461Z,1006.97
2017-08-30T08:39:57.056Z,1006.95
2017-08-30T08:41:09.631Z,1006.94
2017-08-30T08:42:22.208Z,1006.92
2017-08-30T08:43:34.816Z,1006.97
2017-08-30T08:44:47.435Z,1006.94
2017-08-30T08:45:59.757Z,1006.96
2017-08-30T08:47:12.034Z,1007
2017-08-30T08:48:24.623Z,1006.98
2017-08-30T08:49:36.919Z,1007
2017-08-30T08:50:49.219Z,1007.05
2017-08-30T08:52:01.451Z,1007.04
2017-08-30T08:53:13.687Z,1007.05
2017-08-30T08:54:26.029Z,1007.04
2017-08-30T08:55:38.273Z,1007.02
2017-08-30T08:56:50.873Z,1007.05
2017-08-30T08:58:03.170Z,1007.06
2017-08-30T08:59:15.795Z,1007.03
2017-08-30T09:00:28.411Z,1007.05
2017-08-30T09:01:41.079Z,1007.06
2017-08-30T09:02:53.696Z,1007.06
2017-08-30T09:04:06.233Z,1007
2017-08-30T09:05:18.815Z,1006.97
2017-08-30T09:06:31.136Z,1006.99
2017-08-30T09:07:43.730Z,1006.96
2017-08-30T09:08:56.057Z,1006.95
2017-08-30T09:10:08.701Z,1006.9
2017-08-30T09:11:20.964Z,1006.93
2017-08-30T09:12:32.933Z,1006.9
2017-08-30T09:13:45.207Z,1006.92
2017-08-30T09:14:57.738Z,1006.92
2017-08-30T09:16:10.376Z,1006.91
2017-08-30T09:17:22.679Z,1006.89
2017-08-30T09:18:35.263Z,1006.86
2017-08-30T09:19:47.851Z,1006.85
2017-08-30T09:21:00.155Z,1006.81
2017-08-30T09:22:12.126Z,1006.8
2017-08-30T09:23:23.459Z,1006.82
2017-08-30T09:24:35.798Z,1006.81
2017-08-30T09:25:48.064Z,1006.75
2017-08-30T09:27:00.662Z,1006.77
2017-08-30T09:28:12.932Z,1006.77
2017-08-30T09:29:25.557Z,1006.79
2017-08-30T09:30:37.846Z,1006.79
2017-08-30T09:31:50.416Z,1006.77
2017-08-30T09:33:02.722Z,1006.74
2017-08-30T09:34:14.424Z,1006.73
2017-08-30T09:35:27.012Z,1006.74
2017-08-30T09:36:39.606Z,1006.76
2017-08-30T09:37:51.948Z,1006.68
2017-08-30T09:39:04.606Z,1006.71
2017-08-30T09:40:16.889Z,1006.68
2017-08-30T09:41:28.879Z,1006.66
2017-08-30T09:42:41.503Z,1006.67
2017-08-30T09:43:54.077Z,1006.67
2017-08-30T09:45:06.685Z,1006.71
2017-08-30T09:46:18.692Z,1006.66
2017-08-30T09:47:30.986Z,1006.64
2017-08-30T09:48:43.532Z,1006.7
2017-08-30T09:49:55.199Z,1006.66
2017-08-30T09:51:07.514Z,1006.61
2017-08-30T09:52:20.042Z,1006.67
2017-08-30T09:53:32.367Z,1006.62
2017-08-30T09:54:44.863Z,1006.6
2017-08-30T09:55:56.830Z,1006.55
2017-08-30T09:57:08.474Z,1006.51
2017-08-30T09:58:21.082Z,1006.53
2017-08-30T09:59:33.066Z,1006.51
2017-08-30T10:00:45.665Z,1006.47
2017-08-30T10:01:58.290Z,1006.52
2017-08-30T10:03:10.858Z,1006.46
2017-08-30T10:04:23.141Z,1006.48
2017-08-30T10:05:35.744Z,1006.48
2017-08-30T10:06:48.008Z,1006.43
2017-08-30T10:08:00.246Z,1006.38
2017-08-30T10:09:12.250Z,1006.38
2017-08-30T10:10:24.528Z,1006.39
2017-08-30T10:11:36.808Z,1006.37
2017-08-30T10:12:49.422Z,1006.35
2017-08-30T10:14:02.150Z,1006.35
2017-08-30T10:15:14.751Z,1006.32
2017-08-30T10:16:27.037Z,1006.33
2017-08-30T10:17:39.682Z,1006.27
2017-08-30T10:18:52.327Z,1006.32
2017-08-30T10:20:04.996Z,1006.33
2017-08-30T10:21:17.622Z,1006.35
2017-08-30T10:22:29.908Z,1006.33
2017-08-30T10:23:42.461Z,1006.35
2017-08-30T10:24:55.004Z,1006.34
2017-08-30T10:26:07.024Z,1006.29
2017-08-30T10:27:19.693Z,1006.29
2017-08-30T10:28:31.328Z,1006.24
2017-08-30T10:29:43.883Z,1006.25
2017-08-30T10:30:56.153Z,1006.26
2017-08-30T10:32:08.702Z,1006.26
2017-08-30T10:33:21.293Z,1006.23
2017-08-30T10:34:33.581Z,1006.21
2017-08-30T10:35:45.789Z,1006.2
2017-08-30T10:36:57.787Z,1006.19
2017-08-30T10:38:10.344Z,1006.13
2017-08-30T10:39:22.958Z,1006.16
2017-08-30T10:40:34.943Z,1006.13
2017-08-30T10:41:47.213Z,1006.09
2017-08-30T10:42:59.758Z,1006.15
2017-08-30T10:44:12.028Z,1006.16
2017-08-30T10:45:23.718Z,1006.21
2017-08-30T10:46:36.263Z,1006.2
2017-08-30T10:47:48.845Z,1006.12
2017-08-30T10:49:01.105Z,1006.14
2017-08-30T10:50:13.712Z,1006.13
2017-08-30T10:51:25.996Z,1006.13
2017-08-30T10:52:38.586Z,1006.08
2017-08-30T10:53:51.115Z,1006.08
2017-08-30T10:55:03.752Z,1006.02
2017-08-30T10:56:15.492Z,1005.95
2017-08-30T10:57:28.099Z,1005.9
2017-08-30T10:58:40.676Z,1005.91
2017-08-30T10:59:53.286Z,1005.93
2017-08-30T11:01:05.568Z,1005.9
2017-08-30T11:02:17.576Z,1005.99
2017-08-30T11:03:29.546Z,1006.03
2017-08-30T11:04:42.179Z,1006.01
2017-08-30T11:05:54.787Z,1006.03
2017-08-30T11:07:07.395Z,1005.99
2017-08-30T11:08:20.058Z,1006.07
2017-08-30T11:09:32.345Z,1006.09
2017-08-30T11:10:44.602Z,1006.06
2017-08-30T11:11:56.881Z,1006.07
2017-08-30T11:13:09.203Z,1006.04
2017-08-30T11:14:21.795Z,1005.98
2017-08-30T11:15:34.423Z,1006.01
2017-08-30T11:16:46.787Z,1005.88
2017-08-30T11:17:59.110Z,1005.99
2017-08-30T11:19:11.714Z,1005.95
2017-08-30T11:20:24.274Z,1005.94
2017-08-30T11:21:36.876Z,1005.95
2017-08-30T11:22:48.597Z,1005.93
2017-08-30T11:24:01.014Z,1005.95
2017-08-30T11:25:13.299Z,1005.95
2017-08-30T11:26:25.577Z,1005.88
2017-08-30T11:27:37.840Z,1005.9
2017-08-30T11:28:50.430Z,1005.86
2017-08-30T11:30:02.421Z,1005.8
2017-08-30T11:31:14.396Z,1005.82
2017-08-30T11:32:26.733Z,1005.79
2017-08-30T11:33:39.400Z,1005.78
2017-08-30T11:34:51.721Z,1005.83
2017-08-30T11:36:04.048Z,1005.74
2017-08-30T11:37:16.318Z,1005.73
2017-08-30T11:38:28.634Z,1005.65
2017-08-30T11:39:41.305Z,1005.77
2017-08-30T11:40:53.899Z,1005.66
2017-08-30T11:42:06.520Z,1005.69
2017-08-30T11:43:19.141Z,1005.68
2017-08-30T11:44:31.762Z,1005.77
2017-08-30T11:45:44.057Z,1005.73
2017-08-30T11:46:56.739Z,1005.69
2017-08-30T11:48:09.367Z,1005.65
2017-08-30T11:49:21.369Z,1005.66
2017-08-30T11:50:33.940Z,1005.61
2017-08-30T11:51:45.917Z,1005.64
2017-08-30T11:52:57.907Z,1005.66
2017-08-30T11:54:10.502Z,1005.67
2017-08-30T11:55:22.823Z,1005.69
2017-08-30T11:56:35.424Z,1005.67
2017-08-30T11:57:48.292Z,1005.75
2017-08-30T11:59:00.599Z,1005.74
2017-08-30T12:00:13.035Z,1005.74
2017-08-30T12:01:25.066Z,1005.73
2017-08-30T12:02:37.396Z,1005.71
2017-08-30T12:03:49.978Z,1005.72
2017-08-30T12:05:02.611Z,1005.81
2017-08-30T12:06:14.987Z,1005.8
2017-08-30T12:07:27.282Z,1005.75
2017-08-30T12:08:39.825Z,1005.72
2017-08-30T12:09:52.132Z,1005.7
2017-08-30T12:11:04.777Z,1005.63
2017-08-30T12:12:17.068Z,1005.62
2017-08-30T12:13:29.719Z,1005.52
2017-08-30T12:14:41.727Z,1005.57
2017-08-30T12:15:54.060Z,1005.47
2017-08-30T12:17:06.326Z,1005.56
2017-08-30T12:18:18.966Z,1005.53
2017-08-30T12:19:31.536Z,1005.55
2017-08-30T12:20:44.138Z,1005.62
2017-08-30T12:21:56.802Z,1005.61
2017-08-30T12:23:09.359Z,1005.58
2017-08-30T12:24:21.699Z,1005.61
2017-08-30T12:25:34.300Z,1005.6
2017-08-30T12:26:46.608Z,1005.49
2017-08-30T12:27:59.273Z,1005.54
2017-08-30T12:29:11.500Z,1005.47
2017-08-30T12:30:23.773Z,1005.52
2017-08-30T12:31:36.345Z,1005.53
2017-08-30T12:32:48.931Z,1005.52
2017-08-30T12:34:01.230Z,1005.47
2017-08-30T12:35:13.483Z,1005.44
2017-08-30T12:36:26.104Z,1005.43
2017-08-30T12:37:38.394Z,1005.37
2017-08-30T12:38:50.695Z,1005.39
2017-08-30T12:40:02.990Z,1005.36
2017-08-30T12:41:15.011Z,1005.32
2017-08-30T12:42:27.320Z,1005.39
2017-08-30T12:43:39.923Z,1005.39
2017-08-30T12:44:52.525Z,1005.36
2017-08-30T12:46:04.494Z,1005.31
2017-08-30T12:47:16.772Z,1005.25
2017-08-30T12:48:29.442Z,1005.24
2017-08-30T12:49:41.453Z,1005.25
2017-08-30T12:50:54.046Z,1005.22
2017-08-30T12:52:06.379Z,1005.21
2017-08-30T12:53:18.956Z,1005.18
2017-08-30T12:54:31.561Z,1005.13
2017-08-30T12:55:44.229Z,1005.09
2017-08-30T12:56:56.232Z,1005.04
2017-08-30T12:58:08.204Z,1005.04
2017-08-30T12:59:20.503Z,1004.98
2017-08-30T13:00:33.130Z,1004.98
2017-08-30T13:01:45.711Z,1004.96
2017-08-30T13:02:57.655Z,1004.92
2017-08-30T13:04:10.242Z,1004.96
2017-08-30T13:05:22.238Z,1004.94
2017-08-30T13:06:34.792Z,1004.88
2017-08-30T13:07:47.385Z,1004.84
2017-08-30T13:08:59.682Z,1004.87
2017-08-30T13:10:11.995Z,1004.86
2017-08-30T13:11:24.329Z,1004.86
2017-08-30T13:12:36.686Z,1004.87
2017-08-30T13:13:49.238Z,1004.99
2017-08-30T13:15:01.546Z,1004.99
2017-08-30T13:16:14.192Z,1005.05
2017-08-30T13:17:26.812Z,1005.11
2017-08-30T13:18:39.425Z,1005.16
2017-08-30T13:19:52.069Z,1005.17
2017-08-30T13:21:04.038Z,1005.22
2017-08-30T13:22:16.584Z,1005.21
2017-08-30T13:23:28.848Z,1005.17
2017-08-30T13:24:40.831Z,1005.18
2017-08-30T13:25:53.146Z,1005.14
2017-08-30T13:27:04.468Z,1005.11
2017-08-30T13:28:16.448Z,1005.04
2017-08-30T13:29:28.736Z,1005.08
2017-08-30T13:30:41.354Z,1005.05
2017-08-30T13:31:53.949Z,1005.1
2017-08-30T13:33:06.256Z,1004.98
2017-08-30T13:34:18.544Z,1005
2017-08-30T13:35:30.873Z,1004.99
2017-08-30T13:36:43.465Z,1004.98
2017-08-30T13:37:56.126Z,1004.96
2017-08-30T13:39:08.798Z,1004.94
2017-08-30T13:40:20.445Z,1004.93
2017-08-30T13:41:32.132Z,1004.92
2017-08-30T13:42:44.672Z,1004.88
2017-08-30T13:43:57.040Z,1004.88
2017-08-30T13:45:09.630Z,1004.86
2017-08-30T13:46:21.976Z,1004.85
2017-08-30T13:47:34.593Z,1004.8
2017-08-30T13:48:47.214Z,1004.84
2017-08-30T13:49:59.785Z,1004.84
2017-08-30T13:51:12.104Z,1004.87
2017-08-30T13:52:24.732Z,1004.94
2017-08-30T13:53:36.387Z,1004.94
2017-08-30T13:54:49.009Z,1004.95
2017-08-30T13:56:01.672Z,1004.93
2017-08-30T13:57:13.594Z,1004.89
2017-08-30T13:58:25.871Z,1004.9
2017-08-30T13:59:38.179Z,1004.89
2017-08-30T14:00:50.475Z,1004.85
2017-08-30T14:02:02.126Z,1004.87
2017-08-30T14:03:14.387Z,1004.87
2017-08-30T14:04:26.629Z,1004.86
2017-08-30T14:05:38.995Z,1004.85
2017-08-30T14:06:51.595Z,1004.83
2017-08-30T14:08:03.322Z,1004.76
2017-08-30T14:09:15.432Z,1004.73
2017-08-30T14:10:27.889Z,1004.65
2017-08-30T14:11:40.238Z,1004.64
2017-08-30T14:12:52.971Z,1004.63
2017-08-30T14:14:05.044Z,1004.6
2017-08-30T14:15:17.847Z,1004.57
2017-08-30T14:16:30.191Z,1004.53
2017-08-30T14:17:42.820Z,1004.51
2017-08-30T14:18:55.415Z,1004.53
2017-08-30T14:20:08.086Z,1004.49
2017-08-30T14:21:20.683Z,1004.5
2017-08-30T14:22:32.959Z,1004.51
2017-08-30T14:23:45.542Z,1004.45
2017-08-30T14:24:58.444Z,1004.51
2017-08-30T14:26:10.421Z,1004.47
2017-08-30T14:27:22.398Z,1004.48
2017-08-30T14:28:35.024Z,1004.46
2017-08-30T14:29:47.668Z,1004.38
2017-08-30T14:31:00.339Z,1004.38
2017-08-30T14:32:12.963Z,1004.37
2017-08-30T14:33:25.526Z,1004.37
2017-08-30T14:34:38.140Z,1004.39
2017-08-30T14:35:50.460Z,1004.4
2017-08-30T14:37:02.440Z,1004.37
2017-08-30T14:38:14.759Z,1004.41
2017-08-30T14:39:26.692Z,1004.37